createdAt,value
2019-01-18T00:00:03.531Z,0.00
2019-01-18T00:01:03.519Z,0.00
2019-01-18T00:02:03.500Z,0.00
2019-01-18T00:03:03.486Z,0.00
2019-01-18T00:04:03.475Z,0.00
2019-01-18T00:05:03.472Z,0.00
2019-01-18T00:06:03.469Z,0.00
2019-01-18T00:07:03.443Z,0.00
2019-01-18T00:08:03.483Z,0.00
2019-01-18T00:09:03.426Z,0.00
2019-01-18T00:10:03.447Z,0.00
2019-01-18T00:11:03.413Z,0.00
2019-01-18T00:12:04.161Z,0.00
2019-01-18T00:13:03.382Z,0.00
2019-01-18T00:14:03.373Z,0.00
2019-01-18T00:15:03.359Z,0.00
2019-01-18T00:16:03.387Z,0.00
2019-01-18T00:17:03.343Z,0.00
2019-01-18T00:18:03.354Z,0.00
2019-01-18T00:19:03.321Z,0.00
2019-01-18T00:20:03.307Z,0.00
2019-01-18T00:21:03.301Z,0.00
2019-01-18T00:22:03.298Z,0.00
2019-01-18T00:23:03.275Z,0.00
2019-01-18T00:24:03.312Z,0.00
2019-01-18T00:25:03.255Z,0.00
2019-01-18T00:26:03.248Z,0.00
2019-01-18T00:27:03.252Z,0.00
2019-01-18T00:28:03.241Z,0.00
2019-01-18T00:29:03.212Z,0.00
2019-01-18T00:30:03.208Z,0.00
2019-01-18T00:31:03.190Z,0.00
2019-01-18T00:32:03.189Z,0.00
2019-01-18T00:33:03.172Z,0.00
2019-01-18T00:34:03.166Z,0.00
2019-01-18T00:35:03.153Z,0.00
2019-01-18T00:36:03.140Z,0.00
2019-01-18T00:37:03.138Z,0.00
2019-01-18T00:38:03.123Z,0.00
2019-01-18T00:39:03.122Z,0.00
2019-01-18T00:40:03.107Z,0.00
2019-01-18T00:41:03.091Z,0.00
2019-01-18T00:42:03.087Z,0.00
2019-01-18T00:43:03.072Z,0.00
2019-01-18T00:44:03.053Z,0.00
2019-01-18T00:45:03.044Z,0.00
2019-01-18T00:46:03.033Z,0.00
2019-01-18T00:47:03.034Z,0.00
2019-01-18T00:48:03.014Z,0.00
2019-01-18T00:49:03.008Z,0.00
2019-01-18T00:50:02.992Z,0.00
2019-01-18T00:51:02.987Z,0.00
2019-01-18T00:52:03.210Z,0.00
2019-01-18T00:53:02.958Z,0.00
2019-01-18T00:54:02.948Z,0.00
2019-01-18T00:55:02.938Z,0.00
2019-01-18T00:56:02.935Z,0.00
2019-01-18T00:57:02.937Z,0.00
2019-01-18T00:58:02.905Z,0.00
2019-01-18T00:59:02.898Z,0.00
2019-01-18T01:00:02.890Z,0.00
2019-01-18T01:01:02.877Z,0.00
2019-01-18T01:02:02.879Z,0.00
2019-01-18T01:03:02.859Z,0.00
2019-01-18T01:04:02.847Z,0.00
2019-01-18T01:05:02.839Z,0.00
2019-01-18T01:06:02.823Z,0.00
2019-01-18T01:07:02.827Z,0.00
2019-01-18T01:08:02.802Z,0.00
2019-01-18T01:09:02.791Z,0.00
2019-01-18T01:10:02.781Z,0.00
2019-01-18T01:11:02.769Z,0.00
2019-01-18T01:12:02.773Z,0.00
2019-01-18T01:13:02.750Z,0.00
2019-01-18T01:14:02.741Z,0.00
2019-01-18T01:15:02.742Z,0.00
2019-01-18T01:16:02.740Z,0.00
2019-01-18T01:17:02.846Z,0.00
2019-01-18T01:18:02.701Z,0.00
2019-01-18T01:19:02.697Z,0.00
2019-01-18T01:20:02.679Z,0.00
2019-01-18T01:21:02.667Z,0.00
2019-01-18T01:22:02.670Z,0.00
2019-01-18T01:23:02.649Z,0.00
2019-01-18T01:24:02.636Z,0.00
2019-01-18T01:25:02.628Z,0.00
2019-01-18T01:26:02.613Z,0.00
2019-01-18T01:27:02.615Z,0.00
2019-01-18T01:28:02.595Z,0.00
2019-01-18T01:29:02.582Z,0.00
2019-01-18T01:30:02.574Z,0.00
2019-01-18T01:31:02.568Z,0.00
2019-01-18T01:32:02.563Z,0.00
2019-01-18T01:33:02.540Z,0.00
2019-01-18T01:34:02.527Z,0.00
2019-01-18T01:35:02.519Z,0.00
2019-01-18T01:36:02.511Z,0.00
2019-01-18T01:37:02.520Z,0.00
2019-01-18T01:38:02.493Z,0.00
2019-01-18T01:39:02.490Z,0.00
2019-01-18T01:40:02.466Z,0.00
2019-01-18T01:41:02.460Z,0.00
2019-01-18T01:42:02.448Z,0.00
2019-01-18T01:43:02.448Z,0.00
2019-01-18T01:44:02.430Z,0.00
2019-01-18T01:45:02.418Z,0.00
2019-01-18T01:46:02.405Z,0.00
2019-01-18T01:47:02.395Z,0.00
2019-01-18T01:48:02.395Z,0.00
2019-01-18T01:49:02.389Z,0.00
2019-01-18T01:50:02.361Z,0.00
2019-01-18T01:51:02.366Z,0.00
2019-01-18T01:52:02.340Z,0.00
2019-01-18T01:53:02.346Z,0.00
2019-01-18T01:54:02.318Z,0.00
2019-01-18T01:55:02.309Z,0.00
2019-01-18T01:56:03.136Z,0.00
2019-01-18T01:57:02.288Z,0.00
2019-01-18T01:58:02.297Z,0.00
2019-01-18T01:59:02.266Z,0.00
2019-01-18T02:00:02.273Z,0.00
2019-01-18T02:01:02.246Z,0.00
2019-01-18T02:02:02.238Z,0.00
2019-01-18T02:03:02.237Z,0.00
2019-01-18T02:04:02.214Z,0.00
2019-01-18T02:05:02.204Z,0.00
2019-01-18T02:06:02.195Z,0.00
2019-01-18T02:07:02.186Z,0.00
2019-01-18T02:08:02.190Z,0.00
2019-01-18T02:09:02.159Z,0.00
2019-01-18T02:10:02.155Z,0.00
2019-01-18T02:11:02.142Z,0.00
2019-01-18T02:12:02.128Z,0.00
2019-01-18T02:13:02.132Z,0.00
2019-01-18T02:14:02.111Z,0.00
2019-01-18T02:15:02.154Z,0.00
2019-01-18T02:16:02.089Z,0.00
2019-01-18T02:17:02.080Z,0.00
2019-01-18T02:18:02.079Z,0.00
2019-01-18T02:19:02.059Z,0.00
2019-01-18T02:20:02.048Z,0.00
2019-01-18T02:21:02.034Z,0.00
2019-01-18T02:22:02.024Z,0.00
2019-01-18T02:23:02.032Z,0.00
2019-01-18T02:24:02.008Z,0.00
2019-01-18T02:25:01.995Z,0.00
2019-01-18T02:26:01.985Z,0.00
2019-01-18T02:27:01.971Z,0.00
2019-01-18T02:28:01.972Z,0.00
2019-01-18T02:29:01.952Z,0.00
2019-01-18T02:30:01.944Z,0.00
2019-01-18T02:31:01.947Z,0.00
2019-01-18T02:32:01.924Z,0.00
2019-01-18T02:33:01.918Z,0.00
2019-01-18T02:34:01.900Z,0.00
2019-01-18T02:35:01.910Z,0.00
2019-01-18T02:36:01.874Z,0.00
2019-01-18T02:37:01.867Z,0.00
2019-01-18T02:38:01.878Z,0.00
2019-01-18T02:39:01.851Z,0.00
2019-01-18T02:40:01.840Z,0.00
2019-01-18T02:41:01.850Z,0.00
2019-01-18T02:42:01.824Z,0.00
2019-01-18T02:43:01.831Z,0.00
2019-01-18T02:44:01.797Z,0.00
2019-01-18T02:45:01.806Z,0.00
2019-01-18T02:46:01.770Z,0.00
2019-01-18T02:47:01.759Z,0.00
2019-01-18T02:48:01.761Z,0.00
2019-01-18T02:49:01.740Z,0.00
2019-01-18T02:50:02.415Z,0.00
2019-01-18T02:51:01.717Z,0.00
2019-01-18T02:52:01.716Z,0.00
2019-01-18T02:53:01.929Z,0.00
2019-01-18T02:54:01.687Z,0.00
2019-01-18T02:55:01.693Z,0.00
2019-01-18T02:56:01.667Z,0.00
2019-01-18T02:57:01.654Z,0.00
2019-01-18T02:58:01.647Z,0.00
2019-01-18T02:59:01.643Z,0.00
2019-01-18T03:00:05.038Z,0.00
2019-01-18T03:01:01.612Z,0.00
2019-01-18T03:02:01.600Z,0.00
2019-01-18T03:03:01.642Z,0.00
2019-01-18T03:04:03.643Z,0.00
2019-01-18T03:05:01.588Z,0.00
2019-01-18T03:06:01.627Z,0.00
2019-01-18T03:07:04.091Z,0.00
2019-01-18T03:08:01.544Z,0.00
2019-01-18T03:09:01.538Z,0.00
2019-01-18T03:10:01.516Z,0.00
2019-01-18T03:11:01.509Z,0.00
2019-01-18T03:12:01.493Z,0.00
2019-01-18T03:13:01.485Z,0.00
2019-01-18T03:14:01.488Z,0.00
2019-01-18T03:15:01.461Z,0.00
2019-01-18T03:16:01.492Z,0.00
2019-01-18T03:17:01.482Z,0.00
2019-01-18T03:18:01.432Z,0.00
2019-01-18T03:19:01.431Z,0.00
2019-01-18T03:20:01.412Z,0.00
2019-01-18T03:21:01.408Z,0.00
2019-01-18T03:22:01.392Z,0.00
2019-01-18T03:23:01.386Z,0.00
2019-01-18T03:24:01.381Z,0.00
2019-01-18T03:25:01.360Z,0.00
2019-01-18T03:26:01.355Z,0.00
2019-01-18T03:27:01.347Z,0.00
2019-01-18T03:28:01.323Z,0.00
2019-01-18T03:29:01.325Z,0.00
2019-01-18T03:30:01.306Z,0.00
2019-01-18T03:31:01.301Z,0.00
2019-01-18T03:32:01.300Z,0.00
2019-01-18T03:33:01.318Z,0.00
2019-01-18T03:34:01.277Z,0.00
2019-01-18T03:35:01.253Z,0.00
2019-01-18T03:36:01.253Z,0.00
2019-01-18T03:37:01.238Z,0.00
2019-01-18T03:38:01.219Z,0.00
2019-01-18T03:39:01.219Z,0.00
2019-01-18T03:40:01.241Z,0.00
2019-01-18T03:41:01.192Z,0.00
2019-01-18T03:42:01.176Z,0.00
2019-01-18T03:43:01.167Z,0.00
2019-01-18T03:44:01.170Z,0.00
2019-01-18T03:45:01.150Z,0.00
2019-01-18T03:46:01.137Z,0.00
2019-01-18T03:47:01.123Z,0.00
2019-01-18T03:48:01.114Z,0.00
2019-01-18T03:49:01.124Z,0.00
2019-01-18T03:50:01.110Z,0.00
2019-01-18T03:51:01.088Z,0.00
2019-01-18T03:52:01.073Z,0.00
2019-01-18T03:53:01.084Z,0.00
2019-01-18T03:54:01.067Z,0.00
2019-01-18T03:55:01.076Z,0.00
2019-01-18T03:56:01.031Z,0.00
2019-01-18T03:57:01.025Z,0.00
2019-01-18T03:58:01.011Z,0.00
2019-01-18T03:59:01.017Z,0.00
2019-01-18T04:00:00.987Z,0.00
2019-01-18T04:01:00.979Z,0.00
2019-01-18T04:02:00.971Z,0.00
2019-01-18T04:03:00.964Z,0.00
2019-01-18T04:04:00.964Z,0.00
2019-01-18T04:05:00.939Z,0.00
2019-01-18T04:06:00.929Z,0.00
2019-01-18T04:07:00.913Z,0.00
2019-01-18T04:08:00.908Z,0.00
2019-01-18T04:09:00.919Z,0.00
2019-01-18T04:10:00.903Z,0.00
2019-01-18T04:11:00.873Z,0.00
2019-01-18T04:12:00.862Z,0.00
2019-01-18T04:13:00.853Z,0.00
2019-01-18T04:14:00.877Z,0.00
2019-01-18T04:15:00.861Z,0.00
2019-01-18T04:16:00.824Z,0.00
2019-01-18T04:17:00.814Z,0.00
2019-01-18T04:18:00.802Z,0.00
2019-01-18T04:19:00.787Z,0.00
2019-01-18T04:20:00.794Z,0.00
2019-01-18T04:21:00.772Z,0.00
2019-01-18T04:22:00.766Z,0.00
2019-01-18T04:23:00.747Z,0.00
2019-01-18T04:24:00.749Z,0.00
2019-01-18T04:25:00.739Z,0.00
2019-01-18T04:26:00.715Z,0.00
2019-01-18T04:27:00.704Z,0.00
2019-01-18T04:28:00.707Z,0.00
2019-01-18T04:29:00.683Z,0.00
2019-01-18T04:30:00.693Z,0.00
2019-01-18T04:31:00.662Z,0.00
2019-01-18T04:32:00.720Z,0.00
2019-01-18T04:33:00.640Z,0.00
2019-01-18T04:34:01.879Z,0.00
2019-01-18T04:35:00.634Z,0.00
2019-01-18T04:36:00.611Z,0.00
2019-01-18T04:37:00.615Z,0.00
2019-01-18T04:38:00.588Z,0.00
2019-01-18T04:39:00.577Z,0.00
2019-01-18T04:40:00.588Z,0.00
2019-01-18T04:41:00.565Z,0.00
2019-01-18T04:42:00.544Z,0.00
2019-01-18T04:43:00.536Z,0.00
2019-01-18T04:44:00.528Z,0.00
2019-01-18T04:45:00.526Z,0.00
2019-01-18T04:46:00.516Z,0.00
2019-01-18T04:47:00.493Z,0.00
2019-01-18T04:48:00.486Z,0.00
2019-01-18T04:49:00.478Z,0.00
2019-01-18T04:50:00.510Z,0.00
2019-01-18T04:51:00.464Z,0.00
2019-01-18T04:52:00.450Z,0.00
2019-01-18T04:53:00.429Z,0.00
2019-01-18T04:54:00.419Z,0.00
2019-01-18T04:55:00.421Z,0.00
2019-01-18T04:56:00.401Z,0.00
2019-01-18T04:57:00.393Z,0.00
2019-01-18T04:58:00.378Z,0.00
2019-01-18T04:59:00.367Z,0.00
2019-01-18T05:00:00.369Z,0.00
2019-01-18T05:01:00.345Z,0.00
2019-01-18T05:02:00.335Z,0.00
2019-01-18T05:03:00.332Z,0.00
2019-01-18T05:04:00.320Z,0.00
2019-01-18T05:05:00.387Z,0.00
2019-01-18T05:06:00.291Z,0.00
2019-01-18T05:07:00.285Z,0.00
2019-01-18T05:08:00.293Z,0.00
2019-01-18T05:09:00.274Z,0.00
2019-01-18T05:10:00.278Z,0.00
2019-01-18T05:11:00.307Z,0.00
2019-01-18T05:12:00.229Z,0.00
2019-01-18T05:13:00.309Z,0.00
2019-01-18T05:14:00.207Z,0.00
2019-01-18T05:15:00.212Z,0.00
2019-01-18T05:16:00.188Z,0.00
2019-01-18T05:17:00.256Z,0.00
2019-01-18T05:18:00.251Z,0.00
2019-01-18T05:19:00.155Z,0.00
2019-01-18T05:20:00.262Z,0.00
2019-01-18T05:21:00.133Z,0.00
2019-01-18T05:22:00.129Z,0.00
2019-01-18T05:23:00.153Z,0.00
2019-01-18T05:24:00.100Z,0.00
2019-01-18T05:25:00.260Z,0.00
2019-01-18T05:26:00.081Z,0.00
2019-01-18T05:27:00.071Z,0.00
2019-01-18T05:28:00.059Z,0.00
2019-01-18T05:29:00.066Z,0.00
2019-01-18T05:30:00.242Z,0.00
2019-01-18T05:31:00.047Z,0.00
2019-01-18T05:32:00.022Z,0.00
2019-01-18T05:33:00.022Z,0.00
2019-01-18T05:34:00.003Z,0.00
2019-01-18T05:35:00.226Z,0.00
2019-01-18T05:36:00.006Z,0.00
2019-01-18T05:36:59.966Z,0.00
2019-01-18T05:37:59.958Z,0.00
2019-01-18T05:38:59.944Z,0.00
2019-01-18T05:39:59.945Z,0.00
2019-01-18T05:40:59.943Z,0.00
2019-01-18T05:41:59.913Z,0.00
2019-01-18T05:42:59.901Z,0.00
2019-01-18T05:43:59.896Z,0.00
2019-01-18T05:44:59.885Z,0.00
2019-01-18T05:45:59.883Z,0.00
2019-01-18T05:46:59.862Z,0.00
2019-01-18T05:47:59.849Z,0.00
2019-01-18T05:48:59.839Z,0.00
2019-01-18T05:49:59.832Z,0.00
2019-01-18T05:50:59.840Z,0.00
2019-01-18T05:51:59.824Z,0.00
2019-01-18T05:52:59.800Z,0.00
2019-01-18T05:53:59.800Z,0.00
2019-01-18T05:54:59.775Z,0.00
2019-01-18T05:55:59.775Z,0.00
2019-01-18T05:56:59.755Z,0.00
2019-01-18T05:57:59.756Z,0.00
2019-01-18T05:58:59.737Z,0.00
2019-01-18T05:59:59.728Z,0.00
2019-01-18T06:00:59.725Z,0.00
2019-01-18T06:01:59.707Z,0.00
2019-01-18T06:02:59.693Z,0.00
2019-01-18T06:03:59.693Z,0.00
2019-01-18T06:04:59.675Z,0.00
2019-01-18T06:05:59.687Z,0.00
2019-01-18T06:06:59.654Z,0.00
2019-01-18T06:07:59.642Z,0.00
2019-01-18T06:08:59.629Z,0.00
2019-01-18T06:09:59.620Z,0.00
2019-01-18T06:10:59.669Z,0.00
2019-01-18T06:11:59.603Z,0.00
2019-01-18T06:12:59.600Z,0.00
2019-01-18T06:13:59.639Z,0.00
2019-01-18T06:15:06.689Z,0.00
2019-01-18T06:15:59.567Z,0.00
2019-01-18T06:16:59.557Z,0.00
2019-01-18T06:17:59.534Z,0.00
2019-01-18T06:18:59.522Z,0.00
2019-01-18T06:19:59.516Z,0.00
2019-01-18T06:20:59.562Z,0.00
2019-01-18T06:21:59.504Z,0.00
2019-01-18T06:22:59.493Z,0.00
2019-01-18T06:23:59.479Z,0.00
2019-01-18T06:24:59.466Z,0.00
2019-01-18T06:25:59.450Z,0.00
2019-01-18T06:26:59.452Z,0.00
2019-01-18T06:27:59.440Z,0.00
2019-01-18T06:28:59.434Z,0.00
2019-01-18T06:29:59.433Z,0.00
2019-01-18T06:31:01.878Z,0.00
2019-01-18T06:31:59.399Z,0.00
2019-01-18T06:32:59.385Z,0.00
2019-01-18T06:33:59.367Z,0.00
2019-01-18T06:34:59.421Z,0.00
2019-01-18T06:35:59.357Z,0.00
2019-01-18T06:36:59.348Z,0.00
2019-01-18T06:37:59.338Z,0.00
2019-01-18T06:38:59.326Z,0.00
2019-01-18T06:39:59.329Z,0.00
2019-01-18T06:40:59.295Z,0.00
2019-01-18T06:41:59.310Z,0.00
2019-01-18T06:42:59.283Z,0.00
2019-01-18T06:43:59.265Z,0.00
2019-01-18T06:44:59.252Z,0.00
2019-01-18T06:45:59.246Z,0.00
2019-01-18T06:46:59.247Z,0.00
2019-01-18T06:47:59.221Z,0.00
2019-01-18T06:48:59.215Z,0.00
2019-01-18T06:49:59.200Z,0.00
2019-01-18T06:50:59.189Z,0.00
2019-01-18T06:51:59.192Z,0.00
2019-01-18T06:52:59.180Z,0.00
2019-01-18T06:53:59.160Z,0.00
2019-01-18T06:54:59.169Z,0.00
2019-01-18T06:55:59.138Z,0.00
2019-01-18T06:56:59.138Z,0.00
2019-01-18T06:57:59.130Z,0.00
2019-01-18T06:58:59.109Z,0.00
2019-01-18T06:59:59.107Z,5.62
2019-01-18T07:00:59.092Z,5.62
2019-01-18T07:01:59.116Z,5.62
2019-01-18T07:02:59.081Z,5.62
2019-01-18T07:03:59.060Z,5.62
2019-01-18T07:04:59.049Z,5.62
2019-01-18T07:05:59.033Z,5.62
2019-01-18T07:06:59.027Z,5.62
2019-01-18T07:07:59.025Z,11.25
2019-01-18T07:08:59.006Z,11.25
2019-01-18T07:09:58.992Z,11.25
2019-01-18T07:10:58.985Z,11.25
2019-01-18T07:11:59.013Z,11.25
2019-01-18T07:12:58.977Z,11.25
2019-01-18T07:13:58.959Z,16.88
2019-01-18T07:14:58.965Z,16.88
2019-01-18T07:15:58.931Z,16.88
2019-01-18T07:16:58.924Z,16.88
2019-01-18T07:17:58.925Z,16.88
2019-01-18T07:18:58.917Z,22.50
2019-01-18T07:19:58.888Z,22.50
2019-01-18T07:20:58.879Z,22.50
2019-01-18T07:21:58.869Z,22.50
2019-01-18T07:22:58.898Z,28.12
2019-01-18T07:23:58.846Z,28.12
2019-01-18T07:24:58.839Z,28.12
2019-01-18T07:25:58.827Z,28.12
2019-01-18T07:26:58.823Z,28.12
2019-01-18T07:27:58.849Z,33.75
2019-01-18T07:28:58.797Z,33.75
2019-01-18T07:29:58.787Z,45.00
2019-01-18T07:30:58.777Z,56.25
2019-01-18T07:31:58.764Z,56.25
2019-01-18T07:32:58.774Z,56.25
2019-01-18T07:33:58.746Z,61.88
2019-01-18T07:34:58.733Z,61.88
2019-01-18T07:35:58.721Z,67.50
2019-01-18T07:36:58.711Z,67.50
2019-01-18T07:37:58.757Z,73.12
2019-01-18T07:39:00.617Z,78.75
2019-01-18T07:39:58.680Z,78.75
2019-01-18T07:40:58.671Z,78.75
2019-01-18T07:41:58.665Z,84.38
2019-01-18T07:42:58.662Z,90.00
2019-01-18T07:43:58.641Z,95.62
2019-01-18T07:44:58.629Z,95.62
2019-01-18T07:45:58.618Z,101.25
2019-01-18T07:46:58.616Z,106.88
2019-01-18T07:47:58.609Z,106.88
2019-01-18T07:48:58.586Z,106.88
2019-01-18T07:49:58.574Z,106.88
2019-01-18T07:50:58.592Z,95.62
2019-01-18T07:51:58.554Z,84.38
2019-01-18T07:52:58.556Z,84.38
2019-01-18T07:53:58.537Z,84.38
2019-01-18T07:54:58.523Z,84.38
2019-01-18T07:55:58.513Z,78.75
2019-01-18T07:56:58.509Z,73.12
2019-01-18T07:57:58.534Z,78.75
2019-01-18T07:58:58.484Z,78.75
2019-01-18T07:59:58.493Z,78.75
2019-01-18T08:00:58.485Z,78.75
2019-01-18T08:01:58.448Z,78.75
2019-01-18T08:02:58.451Z,90.00
2019-01-18T08:03:58.439Z,95.62
2019-01-18T08:04:58.423Z,101.25
2019-01-18T08:05:58.415Z,101.25
2019-01-18T08:06:58.407Z,101.25
2019-01-18T08:07:58.401Z,95.62
2019-01-18T08:08:58.374Z,101.25
2019-01-18T08:09:58.366Z,101.25
2019-01-18T08:10:58.354Z,101.25
2019-01-18T08:11:58.345Z,106.88
2019-01-18T08:12:58.344Z,112.50
2019-01-18T08:13:58.325Z,129.38
2019-01-18T08:14:58.312Z,140.62
2019-01-18T08:15:58.302Z,140.62
2019-01-18T08:16:58.291Z,140.62
2019-01-18T08:17:58.294Z,140.62
2019-01-18T08:18:58.273Z,146.25
2019-01-18T08:19:58.269Z,146.25
2019-01-18T08:20:58.247Z,146.25
2019-01-18T08:21:58.239Z,140.62
2019-01-18T08:22:58.231Z,140.62
2019-01-18T08:23:58.231Z,146.25
2019-01-18T08:24:58.208Z,146.25
2019-01-18T08:25:58.206Z,146.25
2019-01-18T08:26:58.187Z,151.88
2019-01-18T08:27:58.181Z,157.50
2019-01-18T08:28:58.181Z,157.50
2019-01-18T08:29:58.161Z,157.50
2019-01-18T08:30:58.143Z,168.75
2019-01-18T08:31:58.142Z,174.38
2019-01-18T08:32:58.121Z,157.50
2019-01-18T08:33:58.201Z,157.50
2019-01-18T08:34:58.103Z,140.62
2019-01-18T08:35:58.092Z,129.38
2019-01-18T08:36:58.084Z,118.12
2019-01-18T08:37:58.072Z,118.12
2019-01-18T08:38:58.070Z,146.25
2019-01-18T08:39:58.048Z,236.25
2019-01-18T08:40:58.041Z,247.50
2019-01-18T08:41:58.025Z,174.38
2019-01-18T08:42:58.014Z,168.75
2019-01-18T08:43:58.020Z,157.50
2019-01-18T08:44:57.992Z,140.62
2019-01-18T08:45:58.014Z,129.38
2019-01-18T08:46:57.975Z,123.75
2019-01-18T08:47:57.965Z,129.38
2019-01-18T08:48:58.029Z,146.25
2019-01-18T08:49:57.945Z,151.88
2019-01-18T08:50:57.940Z,140.62
2019-01-18T08:51:57.920Z,146.25
2019-01-18T08:52:57.908Z,163.12
2019-01-18T08:53:57.917Z,174.38
2019-01-18T08:54:57.888Z,202.50
2019-01-18T08:55:57.892Z,185.62
2019-01-18T08:56:57.893Z,168.75
2019-01-18T08:57:57.860Z,151.88
2019-01-18T08:58:57.862Z,135.00
2019-01-18T08:59:57.835Z,146.25
2019-01-18T09:00:57.826Z,247.50
2019-01-18T09:01:57.814Z,433.12
2019-01-18T09:02:57.818Z,579.38
2019-01-18T09:03:57.812Z,568.12
2019-01-18T09:04:57.784Z,495.00
2019-01-18T09:05:57.774Z,416.25
2019-01-18T09:06:57.762Z,382.50
2019-01-18T09:07:57.753Z,405.00
2019-01-18T09:08:57.753Z,444.38
2019-01-18T09:09:57.732Z,438.75
2019-01-18T09:10:57.727Z,427.50
2019-01-18T09:11:57.708Z,410.62
2019-01-18T09:12:57.699Z,410.62
2019-01-18T09:13:59.832Z,354.38
2019-01-18T09:14:57.694Z,343.12
2019-01-18T09:15:57.667Z,388.12
2019-01-18T09:16:57.659Z,393.75
2019-01-18T09:17:57.646Z,393.75
2019-01-18T09:18:57.646Z,399.38
2019-01-18T09:19:57.625Z,376.88
2019-01-18T09:20:57.614Z,309.38
2019-01-18T09:21:57.602Z,258.75
2019-01-18T09:22:57.594Z,253.12
2019-01-18T09:23:57.611Z,219.38
2019-01-18T09:24:57.575Z,185.62
2019-01-18T09:25:57.562Z,163.12
2019-01-18T09:26:57.558Z,168.75
2019-01-18T09:27:57.545Z,174.38
2019-01-18T09:28:57.559Z,168.75
2019-01-18T09:29:57.527Z,163.12
2019-01-18T09:30:57.509Z,157.50
2019-01-18T09:31:57.500Z,157.50
2019-01-18T09:32:57.494Z,157.50
2019-01-18T09:33:57.486Z,168.75
2019-01-18T09:34:57.476Z,168.75
2019-01-18T09:35:57.470Z,163.12
2019-01-18T09:36:57.443Z,163.12
2019-01-18T09:37:57.432Z,157.50
2019-01-18T09:38:57.467Z,146.25
2019-01-18T09:39:57.419Z,140.62
2019-01-18T09:40:57.408Z,140.62
2019-01-18T09:41:57.389Z,140.62
2019-01-18T09:42:57.392Z,140.62
2019-01-18T09:43:57.372Z,140.62
2019-01-18T09:44:57.371Z,140.62
2019-01-18T09:45:57.347Z,140.62
2019-01-18T09:46:57.348Z,140.62
2019-01-18T09:47:57.325Z,146.25
2019-01-18T09:48:57.321Z,157.50
2019-01-18T09:49:57.325Z,140.62
2019-01-18T09:50:57.299Z,140.62
2019-01-18T09:51:57.284Z,140.62
2019-01-18T09:52:57.289Z,140.62
2019-01-18T09:53:57.273Z,146.25
2019-01-18T09:54:57.953Z,146.25
2019-01-18T09:55:57.240Z,146.25
2019-01-18T09:56:57.232Z,146.25
2019-01-18T09:57:57.217Z,146.25
2019-01-18T09:58:57.217Z,140.62
2019-01-18T09:59:57.211Z,140.62
2019-01-18T10:00:57.191Z,140.62
2019-01-18T10:01:57.174Z,140.62
2019-01-18T10:02:57.175Z,140.62
2019-01-18T10:03:57.164Z,140.62
2019-01-18T10:04:57.157Z,140.62
2019-01-18T10:05:57.132Z,140.62
2019-01-18T10:06:57.127Z,140.62
2019-01-18T10:07:57.113Z,140.62
2019-01-18T10:08:57.104Z,140.62
2019-01-18T10:09:57.106Z,140.62
2019-01-18T10:10:57.080Z,140.62
2019-01-18T10:11:57.075Z,129.38
2019-01-18T10:12:57.063Z,140.62
2019-01-18T10:13:57.048Z,140.62
2019-01-18T10:14:57.051Z,140.62
2019-01-18T10:15:57.028Z,140.62
2019-01-18T10:16:57.017Z,140.62
2019-01-18T10:18:00.730Z,140.62
2019-01-18T10:18:56.995Z,140.62
2019-01-18T10:19:56.998Z,140.62
2019-01-18T10:20:56.976Z,135.00
2019-01-18T10:21:56.970Z,135.00
2019-01-18T10:22:56.962Z,140.62
2019-01-18T10:23:56.953Z,140.62
2019-01-18T10:24:56.951Z,140.62
2019-01-18T10:25:56.921Z,140.62
2019-01-18T10:26:56.909Z,140.62
2019-01-18T10:27:56.911Z,140.62
2019-01-18T10:28:57.116Z,140.62
2019-01-18T10:29:56.907Z,140.62
2019-01-18T10:30:56.888Z,157.50
2019-01-18T10:31:56.864Z,140.62
2019-01-18T10:32:56.852Z,135.00
2019-01-18T10:33:56.837Z,129.38
2019-01-18T10:34:56.841Z,129.38
2019-01-18T10:35:56.834Z,129.38
2019-01-18T10:36:56.911Z,123.75
2019-01-18T10:37:56.794Z,123.75
2019-01-18T10:38:56.853Z,123.75
2019-01-18T10:39:56.790Z,123.75
2019-01-18T10:40:56.771Z,118.12
2019-01-18T10:41:56.757Z,118.12
2019-01-18T10:42:56.763Z,118.12
2019-01-18T10:43:56.734Z,118.12
2019-01-18T10:44:56.738Z,112.50
2019-01-18T10:45:56.713Z,112.50
2019-01-18T10:46:56.703Z,112.50
2019-01-18T10:47:56.699Z,112.50
2019-01-18T10:48:56.688Z,112.50
2019-01-18T10:49:56.688Z,112.50
2019-01-18T10:50:56.659Z,106.88
2019-01-18T10:51:56.689Z,112.50
2019-01-18T10:52:56.644Z,106.88
2019-01-18T10:53:56.628Z,106.88
2019-01-18T10:54:56.661Z,106.88
2019-01-18T10:55:56.626Z,106.88
2019-01-18T10:56:56.600Z,106.88
2019-01-18T10:57:56.587Z,106.88
2019-01-18T10:58:56.590Z,106.88
2019-01-18T10:59:56.576Z,106.88
2019-01-18T11:00:56.613Z,106.88
2019-01-18T11:02:03.410Z,106.88
2019-01-18T11:02:57.535Z,106.88
2019-01-18T11:03:56.533Z,106.88
2019-01-18T11:04:56.531Z,106.88
2019-01-18T11:05:56.521Z,106.88
2019-01-18T11:06:56.494Z,106.88
2019-01-18T11:07:56.482Z,106.88
2019-01-18T11:08:56.473Z,106.88
2019-01-18T11:09:56.457Z,106.88
2019-01-18T11:10:56.461Z,106.88
2019-01-18T11:11:56.439Z,106.88
2019-01-18T11:12:56.428Z,106.88
2019-01-18T11:13:57.477Z,106.88
2019-01-18T11:14:56.415Z,106.88
2019-01-18T11:15:56.407Z,106.88
2019-01-18T11:16:56.386Z,101.25
2019-01-18T11:17:56.383Z,106.88
2019-01-18T11:18:56.367Z,106.88
2019-01-18T11:19:56.371Z,101.25
2019-01-18T11:20:56.361Z,101.25
2019-01-18T11:21:56.336Z,101.25
2019-01-18T11:22:56.327Z,101.25
2019-01-18T11:23:56.318Z,101.25
2019-01-18T11:24:56.300Z,101.25
2019-01-18T11:25:56.308Z,101.25
2019-01-18T11:26:56.282Z,101.25
2019-01-18T11:27:56.275Z,101.25
2019-01-18T11:28:56.297Z,101.25
2019-01-18T11:29:56.250Z,101.25
2019-01-18T11:30:56.257Z,101.25
2019-01-18T11:31:56.234Z,101.25
2019-01-18T11:32:56.283Z,101.25
2019-01-18T11:33:56.206Z,101.25
2019-01-18T11:34:56.209Z,101.25
2019-01-18T11:35:56.198Z,101.25
2019-01-18T11:36:58.214Z,101.25
2019-01-18T11:37:56.178Z,101.25
2019-01-18T11:38:56.152Z,101.25
2019-01-18T11:39:56.150Z,101.25
2019-01-18T11:40:56.153Z,101.25
2019-01-18T11:41:56.126Z,101.25
2019-01-18T11:42:56.111Z,101.25
2019-01-18T11:43:56.110Z,101.25
2019-01-18T11:44:56.092Z,101.25
2019-01-18T11:45:56.116Z,101.25
2019-01-18T11:46:56.070Z,101.25
2019-01-18T11:47:56.072Z,101.25
2019-01-18T11:48:56.055Z,101.25
2019-01-18T11:49:56.061Z,95.62
2019-01-18T11:50:56.040Z,101.25
2019-01-18T11:51:56.015Z,95.62
2019-01-18T11:52:56.043Z,95.62
2019-01-18T11:53:56.009Z,101.25
2019-01-18T11:54:56.058Z,101.25
2019-01-18T11:56:19.137Z,101.25
2019-01-18T11:56:59.469Z,95.62
2019-01-18T11:57:55.956Z,101.25
2019-01-18T11:58:55.950Z,101.25
2019-01-18T11:59:55.936Z,95.62
2019-01-18T12:00:55.935Z,95.62
2019-01-18T12:01:55.915Z,95.62
2019-01-18T12:02:55.905Z,95.62
2019-01-18T12:03:55.890Z,95.62
2019-01-18T12:04:55.880Z,95.62
2019-01-18T12:05:55.917Z,95.62
2019-01-18T12:06:55.869Z,95.62
2019-01-18T12:07:55.854Z,95.62
2019-01-18T12:08:55.843Z,95.62
2019-01-18T12:09:55.831Z,95.62
2019-01-18T12:10:55.829Z,95.62
2019-01-18T12:11:55.816Z,95.62
2019-01-18T12:12:55.796Z,95.62
2019-01-18T12:13:55.787Z,95.62
2019-01-18T12:14:55.777Z,95.62
2019-01-18T12:15:55.762Z,95.62
2019-01-18T12:16:55.771Z,95.62
2019-01-18T12:17:55.747Z,95.62
2019-01-18T12:18:55.733Z,95.62
2019-01-18T12:19:55.727Z,95.62
2019-01-18T12:20:55.716Z,95.62
2019-01-18T12:21:55.746Z,90.00
2019-01-18T12:22:55.702Z,90.00
2019-01-18T12:23:55.678Z,90.00
2019-01-18T12:24:55.675Z,90.00
2019-01-18T12:25:55.674Z,90.00
2019-01-18T12:26:55.660Z,90.00
2019-01-18T12:27:55.637Z,90.00
2019-01-18T12:28:55.631Z,90.00
2019-01-18T12:29:55.627Z,90.00
2019-01-18T12:30:55.608Z,90.00
2019-01-18T12:31:55.609Z,90.00
2019-01-18T12:32:55.588Z,90.00
2019-01-18T12:33:55.574Z,90.00
2019-01-18T12:34:55.563Z,90.00
2019-01-18T12:35:55.554Z,90.00
2019-01-18T12:36:58.900Z,90.00
2019-01-18T12:37:55.533Z,90.00
2019-01-18T12:38:55.520Z,90.00
2019-01-18T12:39:55.513Z,90.00
2019-01-18T12:40:55.500Z,90.00
2019-01-18T12:41:55.501Z,90.00
2019-01-18T12:42:55.514Z,90.00
2019-01-18T12:43:55.470Z,90.00
2019-01-18T12:44:55.460Z,90.00
2019-01-18T12:45:55.452Z,90.00
2019-01-18T12:46:55.466Z,84.38
2019-01-18T12:47:55.428Z,84.38
2019-01-18T12:48:55.414Z,84.38
2019-01-18T12:49:55.405Z,84.38
2019-01-18T12:50:55.397Z,84.38
2019-01-18T12:51:55.413Z,84.38
2019-01-18T12:52:55.372Z,84.38
2019-01-18T12:53:55.361Z,84.38
2019-01-18T12:54:55.355Z,84.38
2019-01-18T12:55:55.342Z,84.38
2019-01-18T12:56:55.357Z,84.38
2019-01-18T12:57:55.325Z,84.38